Time;durP1;ratioP1;P1;durP2;ratioP2;P2;SDS_P1;SDS_P2;PMS_P1;PMS_P2;Temp;Humidity;BMP_temperature;BMP_pressure;BME280_temperature;BME280_humidity;BME280_pressure;Samples;Min_cycle;Max_cycle;Signal;HPM_P1;HPM_P2
2022/10/10 00:00:05;;;;;;;7.07;2.88;;;;;;;9.40;74.25;101850.16;2049748;28;20302;-69
2022/10/10 00:01:11;;;;;;;6.63;2.90;;;;;;;9.42;74.17;101850.72;2053679;28;20286;-68
2022/10/10 00:02:15;;;;;;;6.18;2.40;;;;;;;9.42;73.96;101849.91;2048966;28;20302;-68
2022/10/10 00:03:18;;;;;;;6.47;2.40;;;;;;;9.43;74.31;101848.88;2055588;28;20301;-68
2022/10/10 00:04:24;;;;;;;7.57;2.33;;;;;;;9.42;74.49;101853.41;2055725;28;20313;-69
2022/10/10 00:05:27;;;;;;;8.32;2.60;;;;;;;9.40;73.62;101849.34;2040122;29;20648;-68
2022/10/10 00:06:29;;;;;;;6.05;2.58;;;;;;;9.41;74.16;101843.72;2047958;28;20287;-69
2022/10/10 00:07:30;;;;;;;4.80;2.42;;;;;;;9.43;74.26;101849.69;2055978;28;20741;-68
2022/10/10 00:08:35;;;;;;;6.00;2.45;;;;;;;9.42;74.02;101845.34;2055745;28;20417;-68
2022/10/10 00:09:40;;;;;;;7.85;2.58;;;;;;;9.43;73.92;101838.94;2048419;28;20301;-68
2022/10/10 00:10:46;;;;;;;6.70;2.38;;;;;;;9.40;73.84;101835.94;2048365;28;20302;-69
2022/10/10 00:11:49;;;;;;;7.47;2.58;;;;;;;9.41;73.39;101845.59;2040532;29;20292;-68
2022/10/10 00:12:51;;;;;;;10.10;2.33;;;;;;;9.39;73.66;101839.66;2039432;28;20624;-68
2022/10/10 00:13:53;;;;;;;8.93;2.50;;;;;;;9.38;73.98;101843.41;2056648;28;20300;-68
2022/10/10 00:14:57;;;;;;;7.72;2.78;;;;;;;9.38;73.95;101835.34;2064784;28;20297;-68
2022/10/10 00:15:59;;;;;;;5.68;2.80;;;;;;;9.38;73.96;101841.53;2057004;28;20298;-69
2022/10/10 00:17:04;;;;;;;8.02;2.75;;;;;;;9.35;73.84;101836.63;2041102;29;20307;-69
2022/10/10 00:18:06;;;;;;;7.13;2.75;;;;;;;9.35;73.72;101842.00;2049041;29;20302;-69
2022/10/10 00:19:11;;;;;;;8.55;2.72;;;;;;;9.34;73.76;101842.25;2049434;28;20290;-69
2022/10/10 00:20:19;;;;;;;5.35;2.70;;;;;;;9.33;73.59;101836.06;2056796;28;20302;-68
2022/10/10 00:21:23;;;;;;;11.13;2.50;;;;;;;9.33;73.43;101838.75;2042219;29;20295;-69
2022/10/10 00:22:31;;;;;;;7.63;2.55;;;;;;;9.31;73.56;101838.16;2050349;28;20314;-69
2022/10/10 00:23:36;;;;;;;6.72;2.55;;;;;;;9.30;73.81;101833.88;2064209;28;20281;-68
2022/10/10 00:24:41;;;;;;;9.48;2.58;;;;;;;9.28;73.57;101835.97;2064801;28;20285;-68
2022/10/10 00:25:44;;;;;;;6.43;2.42;;;;;;;9.27;73.26;101834.34;2056453;28;20290;-68
2022/10/10 00:26:48;;;;;;;6.47;2.30;;;;;;;9.27;73.54;101837.84;2056747;28;20282;-69
2022/10/10 00:27:51;;;;;;;6.07;2.65;;;;;;;9.24;73.84;101829.44;2064156;28;20301;-68
2022/10/10 00:28:54;;;;;;;8.05;2.95;;;;;;;9.25;73.92;101831.06;2056632;28;20300;-68
2022/10/10 00:30:00;;;;;;;9.32;3.13;;;;;;;9.26;74.33;101832.69;2057006;28;20313;-69
2022/10/10 00:31:09;;;;;;;5.78;2.58;;;;;;;9.22;73.56;101834.22;2055709;28;20286;-68
2022/10/10 00:32:14;;;;;;;7.60;2.40;;;;;;;9.20;74.27;101828.28;2048429;28;20294;-68
2022/10/10 00:33:22;;;;;;;4.82;2.35;;;;;;;9.18;74.20;101838.44;2047777;29;20286;-69
2022/10/10 00:34:25;;;;;;;6.35;2.47;;;;;;;9.16;74.08;101829.81;2049055;28;20350;-69
2022/10/10 00:35:29;;;;;;;7.40;2.45;;;;;;;9.13;74.03;101832.97;2057266;28;20302;-69
2022/10/10 00:36:33;;;;;;;10.60;2.40;;;;;;;9.13;73.98;101832.97;2056947;28;20294;-68
2022/10/10 00:37:38;;;;;;;7.38;2.70;;;;;;;9.12;74.23;101824.09;2064833;28;20300;-69
2022/10/10 00:38:40;;;;;;;5.07;2.45;;;;;;;9.13;74.10;101833.78;2057438;28;20321;-69
2022/10/10 00:39:46;;;;;;;8.77;2.50;;;;;;;9.13;74.25;101832.97;2057170;28;20309;-68
2022/10/10 00:40:56;;;;;;;10.52;2.45;;;;;;;9.15;74.26;101826.31;2057019;28;20309;-68
2022/10/10 00:42:04;;;;;;;4.13;2.40;;;;;;;9.15;74.33;101826.31;2057314;28;20301;-68
2022/10/10 00:43:13;;;;;;;9.18;2.72;;;;;;;9.18;74.71;101827.72;2060702;28;20305;-68
2022/10/10 00:44:19;;;;;;;9.20;2.28;;;;;;;9.20;74.27;101822.91;2073721;28;20285;-69
2022/10/10 00:45:31;;;;;;;6.70;2.40;;;;;;;9.22;74.13;101832.34;2066466;28;20281;-69
2022/10/10 00:46:36;;;;;;;6.90;2.33;;;;;;;9.25;74.22;101828.38;2059699;28;20285;-69
2022/10/10 00:47:41;;;;;;;4.38;2.10;;;;;;;9.29;73.74;101829.53;2066479;28;20340;-69
2022/10/10 00:48:47;;;;;;;6.30;2.60;;;;;;;9.32;73.68;101831.75;2066205;28;20297;-69
2022/10/10 00:49:49;;;;;;;5.65;2.03;;;;;;;9.31;73.58;101830.13;2067097;28;20742;-69
2022/10/10 00:51:13;;;;;;;5.57;2.30;;;;;;;9.30;73.46;101828.50;2065963;28;20788;-68
2022/10/10 00:52:17;;;;;;;8.38;2.50;;;;;;;9.29;73.58;101827.66;2061610;28;20615;-68
2022/10/10 00:53:22;;;;;;;6.65;2.75;;;;;;;9.27;73.29;101826.28;2066656;28;20285;-68
2022/10/10 00:54:30;;;;;;;6.20;2.45;;;;;;;9.25;73.57;101831.06;2066865;28;20316;-69
2022/10/10 00:55:36;;;;;;;5.22;2.20;;;;;;;9.22;73.42;101828.84;2074723;28;20273;-69
2022/10/10 00:56:47;;;;;;;10.10;2.10;;;;;;;9.20;73.45;101829.09;2066492;28;20285;-69
2022/10/10 00:57:53;;;;;;;6.85;2.13;;;;;;;9.20;73.51;101828.28;2066050;28;20304;-68
2022/10/10 00:59:03;;;;;;;7.47;2.00;;;;;;;9.23;73.47;101825.13;2065770;28;20301;-69
2022/10/10 01:00:07;;;;;;;8.80;2.30;;;;;;;9.21;73.90;101835.28;2057634;28;20705;-68
2022/10/10 01:01:09;;;;;;;6.15;2.13;;;;;;;9.16;73.24;101827.94;2058904;28;20820;-69
2022/10/10 01:02:14;;;;;;;6.13;2.13;;;;;;;9.14;73.89;101826.53;2065177;28;20300;-68
2022/10/10 01:03:17;;;;;;;5.15;2.10;;;;;;;9.12;73.35;101829.47;2057169;28;20297;-68
2022/10/10 01:04:42;;;;;;;8.13;2.20;;;;;;;9.10;74.12;101828.06;2057950;28;20293;-69
2022/10/10 01:05:47;;;;;;;5.93;1.90;;;;;;;9.08;73.82;101828.31;2053327;28;20774;-68
2022/10/10 01:06:51;;;;;;;5.32;2.03;;;;;;;9.08;73.44;101830.16;2058666;28;20297;-69
2022/10/10 01:07:56;;;;;;;4.80;2.10;;;;;;;9.04;73.33;101836.00;2066187;28;20292;-69
2022/10/10 01:09:00;;;;;;;4.90;1.70;;;;;;;9.01;73.78;101830.31;2057603;28;20349;-68
2022/10/10 01:10:10;;;;;;;6.65;2.00;;;;;;;9.01;74.26;101831.13;2057974;28;20298;-68
2022/10/10 01:11:33;;;;;;;3.40;1.90;;;;;;;9.02;73.50;101831.94;2057180;28;20316;-68
2022/10/10 01:12:39;;;;;;;4.10;1.92;;;;;;;9.01;73.94;101833.78;2060034;28;20030;-69
2022/10/10 01:14:07;;;;;;;5.18;1.90;;;;;;;9.00;74.13;101834.84;2056018;28;20294;-69
2022/10/10 01:15:13;;;;;;;6.30;1.88;;;;;;;9.01;73.87;101831.13;2056733;28;20046;-69
2022/10/10 01:16:41;;;;;;;5.63;1.80;;;;;;;8.96;74.14;101835.59;2041086;29;20346;-69
2022/10/10 01:18:09;;;;;;;5.95;2.13;;;;;;;8.93;74.20;101828.81;2043501;28;20294;-69
2022/10/10 01:19:20;;;;;;;6.82;1.85;;;;;;;8.89;74.30;101822.31;2057175;28;20289;-69
2022/10/10 01:20:45;;;;;;;8.40;1.95;;;;;;;8.86;74.19;101827.28;2056323;28;20817;-69
2022/10/10 01:21:58;;;;;;;3.75;2.03;;;;;;;8.85;74.64;101821.13;2057364;28;20870;-69
2022/10/10 01:23:35;;;;;;;5.53;2.08;;;;;;;8.85;74.92;101821.13;2057143;28;20279;-68
2022/10/10 01:25:11;;;;;;;5.22;1.83;;;;;;;8.85;74.61;101813.06;2052761;28;20771;-68
2022/10/10 01:26:13;;;;;;;5.53;2.00;;;;;;;8.89;74.49;101818.78;2037331;29;20423;-69
2022/10/10 01:27:30;;;;;;;4.07;1.83;;;;;;;8.88;74.73;101814.47;2040347;29;20287;-68
2022/10/10 01:28:56;;;;;;;5.53;1.80;;;;;;;8.86;74.46;101814.72;2043415;28;20302;-69
2022/10/10 01:30:01;;;;;;;8.90;1.90;;;;;;;8.86;74.50;101814.72;2057647;28;20278;-68
2022/10/10 01:31:07;;;;;;;3.63;1.92;;;;;;;8.84;74.47;101808.78;2058165;28;20297;-69
2022/10/10 01:32:41;;;;;;;8.07;2.10;;;;;;;8.79;74.38;101808.66;2057517;28;20285;-69
2022/10/10 01:34:02;;;;;;;5.10;2.00;;;;;;;8.77;74.33;101808.09;2047174;29;20712;-69
2022/10/10 01:35:28;;;;;;;4.70;1.80;;;;;;;8.76;74.72;101806.44;2050076;28;20293;-69
2022/10/10 01:36:45;;;;;;;5.32;1.80;;;;;;;8.76;74.54;101809.13;2049637;29;20822;-68
2022/10/10 01:38:11;;;;;;;7.13;2.38;;;;;;;8.78;75.02;101807.03;2052261;28;20283;-69
2022/10/10 01:39:45;;;;;;;3.50;1.58;;;;;;;8.85;74.96;101804.22;2058039;28;20293;-69
2022/10/10 01:40:59;;;;;;;4.20;1.60;;;;;;;8.87;74.84;101805.63;2041679;29;20287;-68
2022/10/10 01:42:10;;;;;;;2.85;1.50;;;;;;;8.91;74.89;101798.72;2040814;29;20296;-69
2022/10/10 01:43:14;;;;;;;3.28;1.48;;;;;;;8.94;74.93;101800.94;2044285;28;20288;-69
2022/10/10 01:44:29;;;;;;;4.00;1.50;;;;;;;8.97;74.71;101799.66;2064685;28;20285;-69
2022/10/10 01:45:34;;;;;;;4.38;1.45;;;;;;;9.01;74.64;101801.59;2056988;28;20290;-68
2022/10/10 01:46:37;;;;;;;7.18;1.90;;;;;;;9.04;74.34;101800.31;2048010;28;20627;-68
2022/10/10 01:47:40;;;;;;;3.50;1.52;;;;;;;9.07;74.31;101802.53;2048843;28;20341;-69
2022/10/10 01:48:49;;;;;;;4.25;1.40;;;;;;;9.08;74.15;101800.66;2056743;28;20297;-68
2022/10/10 01:49:55;;;;;;;6.05;1.80;;;;;;;9.08;73.72;101797.97;2064870;28;20293;-69
2022/10/10 01:51:06;;;;;;;5.85;1.75;;;;;;;9.07;73.41;101791.00;2064188;28;20682;-69
2022/10/10 01:52:26;;;;;;;4.03;1.48;;;;;;;9.09;73.72;101794.25;2056870;28;20294;-69
2022/10/10 01:53:58;;;;;;;5.85;1.85;;;;;;;9.08;73.22;101787.25;2056905;28;20639;-68
2022/10/10 01:55:34;;;;;;;3.00;1.35;;;;;;;9.08;73.50;101789.91;2053024;28;20043;-69
2022/10/10 01:56:41;;;;;;;5.13;1.42;;;;;;;9.09;73.65;101796.94;2053605;28;20686;-69
2022/10/10 01:58:02;;;;;;;3.53;1.67;;;;;;;9.07;73.64;101797.16;2050099;28;20298;-69
2022/10/10 01:59:52;;;;;;;5.55;1.60;;;;;;;9.05;73.35;101794.72;2051402;28;20301;-69
2022/10/10 02:01:20;;;;;;;6.75;1.70;;;;;;;9.07;73.33;101794.47;2063923;28;20301;-69
2022/10/10 02:02:55;;;;;;;3.72;1.65;;;;;;;9.09;73.41;101791.56;2049839;29;20419;-68
2022/10/10 02:04:24;;;;;;;7.30;1.60;;;;;;;9.13;73.86;101795.41;2050602;28;20682;-69
2022/10/10 02:06:06;;;;;;;6.78;1.60;;;;;;;9.14;73.48;101786.28;2053437;28;20298;-69
2022/10/10 02:07:36;;;;;;;3.33;1.65;;;;;;;9.11;73.80;101795.66;2051248;28;20286;-68
2022/10/10 02:08:49;;;;;;;6.25;1.75;;;;;;;9.08;73.09;101788.09;2025826;29;20295;-68
2022/10/10 02:09:56;;;;;;;4.18;1.67;;;;;;;9.08;73.56;101795.28;2057918;28;20035;-69
2022/10/10 02:11:10;;;;;;;4.22;2.00;;;;;;;9.10;73.58;101794.00;2049706;28;20282;-69
2022/10/10 02:12:14;;;;;;;8.75;1.50;;;;;;;9.10;73.37;101796.69;2044601;28;20288;-69
2022/10/10 02:13:22;;;;;;;5.40;1.60;;;;;;;9.11;73.46;101798.34;2050240;28;20286;-68
2022/10/10 02:14:31;;;;;;;5.25;1.77;;;;;;;9.10;73.58;101787.81;2055164;28;20298;-68
2022/10/10 02:15:41;;;;;;;5.95;1.80;;;;;;;9.08;73.57;101793.44;2049621;29;20290;-68
2022/10/10 02:16:46;;;;;;;5.13;1.75;;;;;;;9.03;73.34;101796.81;2043227;29;20291;-68
2022/10/10 02:17:50;;;;;;;3.92;1.63;;;;;;;8.99;73.38;101793.00;2049601;28;20373;-69
2022/10/10 02:18:58;;;;;;;5.05;1.90;;;;;;;8.95;73.37;101794.53;2050427;28;20278;-69
2022/10/10 02:20:03;;;;;;;4.28;1.92;;;;;;;8.92;73.65;101794.16;2057139;28;20998;-68
2022/10/10 02:21:08;;;;;;;5.32;1.65;;;;;;;8.89;73.62;101800.00;2049723;29;20286;-69
2022/10/10 02:22:14;;;;;;;4.32;1.80;;;;;;;8.87;73.95;101802.13;2042447;29;20299;-69
2022/10/10 02:23:18;;;;;;;7.38;1.73;;;;;;;8.85;74.39;101799.66;2041338;29;20294;-69
2022/10/10 02:24:25;;;;;;;6.40;1.90;;;;;;;8.85;74.69;101804.22;2049055;28;20293;-69
2022/10/10 02:25:35;;;;;;;9.60;2.13;;;;;;;8.82;74.47;101795.56;2048683;29;20294;-69
2022/10/10 02:26:39;;;;;;;3.75;1.95;;;;;;;8.82;74.42;101798.25;2047476;29;20279;-69
2022/10/10 02:27:53;;;;;;;7.38;2.08;;;;;;;8.87;74.16;101792.22;2049112;28;20042;-69
2022/10/10 02:29:04;;;;;;;7.93;2.65;;;;;;;8.84;74.24;101784.63;2047283;28;20299;-69
2022/10/10 02:30:17;;;;;;;5.47;2.00;;;;;;;8.87;74.36;101794.09;2049576;28;20286;-69
2022/10/10 02:31:33;;;;;;;6.75;2.05;;;;;;;8.86;74.26;101793.28;2056486;28;20301;-69
2022/10/10 02:32:48;;;;;;;3.65;1.98;;;;;;;8.86;74.36;101792.44;2050062;28;20298;-69
2022/10/10 02:34:00;;;;;;;7.07;2.17;;;;;;;8.84;74.34;101792.69;2050164;28;20655;-69
2022/10/10 02:35:20;;;;;;;3.75;1.73;;;;;;;8.81;74.53;101793.16;2056598;28;20297;-68
2022/10/10 02:36:27;;;;;;;8.73;2.03;;;;;;;8.82;74.66;101789.41;2056817;28;20699;-68
2022/10/10 02:37:32;;;;;;;9.10;1.90;;;;;;;8.81;74.04;101798.50;2048394;29;20297;-68
2022/10/10 02:38:40;;;;;;;5.68;2.00;;;;;;;8.83;74.50;101791.06;2049057;28;20275;-68
2022/10/10 02:39:53;;;;;;;5.15;2.00;;;;;;;8.85;74.81;101788.13;2056431;28;20302;-68
2022/10/10 02:41:02;;;;;;;6.20;1.95;;;;;;;8.86;74.21;101795.09;2051147;28;20295;-69
2022/10/10 02:42:05;;;;;;;;;;;;;;;8.87;74.40;101789.53;2059155;28;20305;-69
2022/10/10 02:43:14;;;;;;;5.50;1.90;;;;;;;8.91;74.31;101787.19;2065568;28;19917;-69
2022/10/10 02:44:21;;;;;;;5.85;2.20;;;;;;;8.93;74.25;101782.41;2060635;28;20285;-69
2022/10/10 02:45:28;;;;;;;9.65;2.58;;;;;;;8.91;74.34;101785.31;2064666;28;20320;-68
2022/10/10 02:46:31;;;;;;;10.98;2.58;;;;;;;8.90;74.63;101786.38;2057528;28;20309;-68
2022/10/10 02:47:33;;;;;;;4.78;2.00;;;;;;;8.89;74.47;101784.75;2049370;29;20298;-69
2022/10/10 02:48:39;;;;;;;7.35;2.17;;;;;;;8.90;74.05;101785.56;2049931;28;20278;-69
2022/10/10 02:49:50;;;;;;;6.38;2.17;;;;;;;8.88;74.68;101793.81;2057545;28;20301;-69
2022/10/10 02:50:58;;;;;;;3.92;2.22;;;;;;;8.89;74.39;101790.13;2051032;28;20293;-69
2022/10/10 02:52:01;;;;;;;8.70;2.20;;;;;;;8.93;74.59;101785.09;2049898;28;20302;-69
2022/10/10 02:53:07;;;;;;;6.47;2.40;;;;;;;8.93;74.01;101791.25;2041911;29;20294;-69
2022/10/10 02:54:12;;;;;;;4.60;2.22;;;;;;;8.92;74.34;101781.59;2058028;28;20293;-69
2022/10/10 02:55:15;;;;;;;6.03;2.50;;;;;;;8.93;74.34;101791.25;2057318;28;20290;-69
2022/10/10 02:56:19;;;;;;;6.45;2.22;;;;;;;8.95;74.33;101789.16;2057630;28;20285;-69
2022/10/10 02:57:29;;;;;;;7.28;2.30;;;;;;;8.97;74.83;101787.03;2064579;28;20285;-70
2022/10/10 02:58:33;;;;;;;7.05;2.45;;;;;;;8.98;74.33;101783.31;2063995;28;20658;-70
2022/10/10 02:59:38;;;;;;;4.03;2.17;;;;;;;8.98;74.07;101785.16;2056853;28;20294;-69
2022/10/10 03:00:45;;;;;;;8.80;2.92;;;;;;;8.97;74.50;101781.69;2056015;28;20305;-69
2022/10/10 03:01:50;;;;;;;7.30;2.30;;;;;;;8.97;74.66;101787.03;2040160;29;20810;-69
2022/10/10 03:02:54;;;;;;;4.55;2.22;;;;;;;8.98;74.63;101783.31;2025501;29;20307;-69
2022/10/10 03:03:58;;;;;;;7.38;2.50;;;;;;;8.99;74.42;101781.47;2041859;28;20294;-69
2022/10/10 03:05:08;;;;;;;7.10;2.10;;;;;;;8.98;74.48;101777.13;2048171;29;20287;-69
2022/10/10 03:06:13;;;;;;;;;;;;;;;8.94;74.21;101776.78;2048670;29;20286;-69
2022/10/10 03:07:18;;;;;;;4.60;1.90;;;;;;;8.91;74.55;101777.25;2040295;29;20371;-69
2022/10/10 03:08:26;;;;;;;6.55;2.58;;;;;;;8.91;74.05;101779.13;2033046;29;20292;-69
2022/10/10 03:09:28;;;;;;;6.22;2.67;;;;;;;8.90;74.37;101777.50;2033261;29;20502;-69
2022/10/10 03:10:31;;;;;;;8.93;2.40;;;;;;;8.89;74.61;101782.06;2040842;29;20283;-69
2022/10/10 03:11:34;;;;;;;4.07;1.98;;;;;;;8.88;74.37;101785.78;2041485;29;20290;-68
2022/10/10 03:12:36;;;;;;;6.57;2.33;;;;;;;8.87;74.54;101773.44;2041466;29;20287;-68
2022/10/10 03:13:45;;;;;;;6.82;2.60;;;;;;;8.87;74.40;101776.13;2041792;29;20276;-68
2022/10/10 03:14:52;;;;;;;9.25;2.25;;;;;;;8.88;74.64;101772.38;2041324;29;20306;-68
2022/10/10 03:15:57;;;;;;;7.18;2.60;;;;;;;8.87;74.73;101772.63;2050406;28;20301;-69
2022/10/10 03:17:02;;;;;;;4.78;2.50;;;;;;;8.86;74.70;101771.81;2049201;29;20039;-69
2022/10/10 03:18:05;;;;;;;5.28;2.60;;;;;;;8.84;74.83;101773.91;2041478;29;20290;-68
2022/10/10 03:19:10;;;;;;;7.82;2.75;;;;;;;8.84;75.03;101779.28;2041491;29;20306;-69
2022/10/10 03:20:12;;;;;;;6.38;2.47;;;;;;;8.84;74.95;101771.22;2049238;29;20807;-69
2022/10/10 03:21:21;;;;;;;8.00;2.47;;;;;;;8.83;74.73;101774.97;2049842;28;20286;-69
2022/10/10 03:22:24;;;;;;;6.88;2.38;;;;;;;8.84;74.47;101773.09;2056329;28;20298;-69
2022/10/10 03:23:29;;;;;;;5.20;2.75;;;;;;;8.85;74.67;101777.41;2041611;29;20310;-69
2022/10/10 03:24:34;;;;;;;6.88;2.42;;;;;;;8.85;75.04;101772.03;2049073;29;20787;-68
2022/10/10 03:25:41;;;;;;;5.53;2.33;;;;;;;8.88;74.76;101771.56;2042123;29;20292;-69
2022/10/10 03:26:48;;;;;;;6.03;2.72;;;;;;;8.88;74.77;101766.19;2033520;29;20304;-69
2022/10/10 03:27:51;;;;;;;6.68;2.38;;;;;;;8.89;74.60;101767.81;2042416;29;20280;-69
2022/10/10 03:28:56;;;;;;;7.72;2.88;;;;;;;8.89;75.20;101768.66;2049893;28;20286;-69
2022/10/10 03:30:03;;;;;;;6.00;2.72;;;;;;;8.89;74.87;101770.50;2047434;28;20290;-68
2022/10/10 03:31:05;;;;;;;5.18;2.35;;;;;;;8.88;74.54;101766.19;2047787;28;20287;-68
2022/10/10 03:32:11;;;;;;;6.10;2.10;;;;;;;8.86;75.15;101768.28;2039885;29;20292;-69
2022/10/10 03:33:18;;;;;;;6.97;2.58;;;;;;;8.89;75.00;101774.03;2041865;28;20302;-69
2022/10/10 03:34:20;;;;;;;5.90;2.30;;;;;;;8.89;75.07;101762.44;2047882;29;20318;-68
2022/10/10 03:35:36;;;;;;;6.03;2.30;;;;;;;8.86;75.12;101762.94;2047864;29;20342;-68
2022/10/10 03:36:40;;;;;;;8.20;2.50;;;;;;;8.86;74.31;101769.13;2048041;29;20305;-69
2022/10/10 03:37:53;;;;;;;6.97;2.38;;;;;;;8.86;74.36;101763.75;2048542;28;20443;-69
2022/10/10 03:39:00;;;;;;;7.75;2.67;;;;;;;8.83;74.64;101756.19;2048109;29;20293;-68
2022/10/10 03:40:03;;;;;;;6.95;2.92;;;;;;;8.84;74.69;101765.06;2040980;29;20637;-69
2022/10/10 03:41:06;;;;;;;7.82;2.92;;;;;;;8.86;75.15;101762.94;2047973;29;20305;-69
2022/10/10 03:42:13;;;;;;;6.78;3.05;;;;;;;8.83;74.16;101761.56;2047815;29;20299;-68
2022/10/10 03:43:16;;;;;;;6.13;2.60;;;;;;;8.84;74.47;101765.06;2041427;29;20298;-68
2022/10/10 03:44:24;;;;;;;9.52;2.88;;;;;;;8.83;74.45;101764.25;2048792;28;20271;-68
2022/10/10 03:45:31;;;;;;;6.78;2.97;;;;;;;8.82;74.64;101757.22;2057737;28;20282;-68
2022/10/10 03:46:36;;;;;;;9.88;3.15;;;;;;;8.84;74.81;101765.06;2065225;28;20285;-68
2022/10/10 03:47:43;;;;;;;7.90;3.08;;;;;;;8.80;74.55;101759.34;2056254;28;20281;-68
2022/10/10 03:48:48;;;;;;;6.32;3.10;;;;;;;8.79;74.15;101765.75;2057937;28;20285;-68
2022/10/10 03:49:54;;;;;;;10.75;3.25;;;;;;;8.78;74.33;101764.94;2040894;29;20295;-68
2022/10/10 03:50:59;;;;;;;6.90;3.00;;;;;;;8.77;74.91;101770.53;2035437;28;20299;-68
2022/10/10 03:52:04;;;;;;;8.43;3.40;;;;;;;8.77;74.46;101766.00;2049031;28;20282;-68
2022/10/10 03:53:08;;;;;;;8.57;3.30;;;;;;;8.78;74.45;101764.13;2048865;29;20295;-68
2022/10/10 03:54:15;;;;;;;6.10;3.35;;;;;;;8.78;74.28;101772.16;2049715;28;20279;-68
2022/10/10 03:55:20;;;;;;;7.70;3.47;;;;;;;8.74;74.52;101766.47;2055991;28;20290;-68
2022/10/10 03:56:27;;;;;;;7.03;3.30;;;;;;;8.76;75.10;101767.06;2050224;28;20287;-68
2022/10/10 03:57:29;;;;;;;8.98;3.78;;;;;;;8.75;74.94;101761.91;2056399;28;20281;-68
2022/10/10 03:58:32;;;;;;;9.32;3.05;;;;;;;8.75;74.73;101765.41;2055949;28;20286;-68
2022/10/10 03:59:34;;;;;;;9.32;3.70;;;;;;;8.78;74.90;101762.25;2038760;29;20287;-68
2022/10/10 04:00:39;;;;;;;8.13;3.30;;;;;;;8.77;74.66;101767.88;2041244;28;20280;-68
2022/10/10 04:01:41;;;;;;;12.50;3.88;;;;;;;8.74;74.49;101763.78;2047895;29;20302;-68
2022/10/10 04:02:42;;;;;;;9.93;4.05;;;;;;;8.74;75.00;101755.75;2032350;29;20292;-68
2022/10/10 04:03:44;;;;;;;11.68;3.83;;;;;;;8.72;74.62;101754.34;2039657;28;20629;-69
2022/10/10 04:04:47;;;;;;;11.70;4.47;;;;;;;8.71;74.97;101766.94;2055683;28;20285;-68
2022/10/10 04:05:53;;;;;;;9.48;3.88;;;;;;;8.71;74.31;101771.50;2047965;29;20279;-68
2022/10/10 04:06:55;;;;;;;10.45;4.20;;;;;;;8.69;74.70;101768.22;2048515;28;20790;-70
2022/10/10 04:08:02;;;;;;;8.27;3.50;;;;;;;8.66;74.50;101766.81;2056357;28;20286;-68
2022/10/10 04:09:05;;;;;;;11.63;4.32;;;;;;;8.64;74.69;101768.09;2047494;28;20290;-70
2022/10/10 04:10:10;;;;;;;9.95;4.40;;;;;;;8.66;75.08;101763.31;2047768;28;20286;-68
2022/10/10 04:11:16;;;;;;;15.65;4.55;;;;;;;8.67;75.38;101764.94;2048447;29;20295;-70
2022/10/10 04:12:18;;;;;;;9.38;3.83;;;;;;;8.68;74.92;101766.59;2049829;28;20298;-68
2022/10/10 04:13:24;;;;;;;11.32;4.07;;;;;;;8.68;74.89;101764.72;2056383;28;20285;-67
2022/10/10 04:14:31;;;;;;;7.97;3.85;;;;;;;8.69;75.01;101770.91;2041980;29;20292;-68
2022/10/10 04:15:36;;;;;;;11.25;4.20;;;;;;;8.70;75.31;101767.16;2049013;28;20290;-67
2022/10/10 04:16:40;;;;;;;8.93;3.85;;;;;;;8.71;75.15;101776.84;2064081;28;20793;-73
2022/10/10 04:17:45;;;;;;;13.57;4.32;;;;;;;8.73;75.14;101772.06;2056732;28;20282;-71
2022/10/10 04:18:50;;;;;;;10.05;4.38;;;;;;;8.75;75.57;101775.31;2049369;28;20648;-71
2022/10/10 04:19:55;;;;;;;8.93;4.20;;;;;;;8.75;75.44;101775.31;2049676;28;20295;-72
2022/10/10 04:21:02;;;;;;;12.10;4.03;;;;;;;8.71;75.05;101771.50;2056199;28;20286;-71
2022/10/10 04:22:06;;;;;;;9.90;4.30;;;;;;;8.69;74.89;101774.41;2064718;28;20285;-72
2022/10/10 04:23:11;;;;;;;8.18;3.95;;;;;;;8.68;75.40;101775.44;2056584;28;20651;-71
2022/10/10 04:24:14;;;;;;;9.73;4.25;;;;;;;8.67;75.40;101781.03;2048391;28;20295;-71
2022/10/10 04:25:19;;;;;;;10.10;4.43;;;;;;;8.61;75.42;101774.78;2055286;28;20294;-73
2022/10/10 04:26:24;;;;;;;11.30;4.30;;;;;;;8.56;75.65;101771.97;2052793;28;20313;-72
2022/10/10 04:27:26;;;;;;;11.23;4.75;;;;;;;8.53;75.79;101769.75;2055758;28;20793;-73
2022/10/10 04:28:33;;;;;;;14.48;4.70;;;;;;;8.46;75.93;101772.56;2053708;28;20293;-73
2022/10/10 04:29:38;;;;;;;12.23;4.57;;;;;;;8.47;76.21;101770.69;2038014;29;20291;-73
2022/10/10 04:30:40;;;;;;;12.60;4.50;;;;;;;8.47;76.13;101766.16;2030168;28;20059;-73
2022/10/10 04:31:42;;;;;;;9.63;4.65;;;;;;;8.46;76.37;101766.41;2045850;28;20299;-74
2022/10/10 04:32:50;;;;;;;11.52;4.47;;;;;;;8.45;76.19;101767.44;2046730;28;20671;-74
2022/10/10 04:33:55;;;;;;;9.80;4.65;;;;;;;8.45;76.49;101765.59;2054236;28;20473;-73
2022/10/10 04:34:57;;;;;;;12.07;4.70;;;;;;;8.46;76.46;101764.53;2054080;28;20650;-71
2022/10/10 04:36:03;;;;;;;10.85;4.35;;;;;;;8.45;76.45;101757.53;2046378;28;20302;-78
2022/10/10 04:37:06;;;;;;;9.13;4.10;;;;;;;8.46;76.53;101758.34;2047012;28;20299;-76
2022/10/10 04:38:12;;;;;;;10.13;4.70;;;;;;;8.46;76.50;101753.00;2054764;28;20289;-73
2022/10/10 04:39:15;;;;;;;15.00;4.05;;;;;;;8.46;77.01;101753.81;2061119;28;20297;-74
2022/10/10 04:40:18;;;;;;;14.82;4.70;;;;;;;8.48;77.17;101750.88;2053520;28;20707;-72
2022/10/10 04:41:21;;;;;;;9.13;4.20;;;;;;;8.44;76.75;101755.09;2053952;28;20293;-73
2022/10/10 04:42:28;;;;;;;8.10;3.90;;;;;;;8.43;76.71;101751.59;2046114;29;20682;-73
2022/10/10 04:43:31;;;;;;;10.43;4.25;;;;;;;8.39;76.49;101749.63;2034575;29;20269;-75
2022/10/10 04:44:36;;;;;;;10.90;4.43;;;;;;;8.36;76.93;101748.19;2046920;28;20635;-73
2022/10/10 04:45:43;;;;;;;11.80;3.88;;;;;;;8.35;76.75;101747.38;2053236;28;20302;-73
2022/10/10 04:46:50;;;;;;;8.63;4.15;;;;;;;8.34;77.27;101752.97;2039429;29;20287;-73
2022/10/10 04:47:55;;;;;;;11.68;4.85;;;;;;;8.32;77.01;101745.19;2047662;28;20643;-73
2022/10/10 04:48:57;;;;;;;12.75;4.43;;;;;;;8.33;77.43;101743.31;2054163;28;20289;-73
2022/10/10 04:50:03;;;;;;;11.50;4.57;;;;;;;8.32;77.31;101747.00;2054360;28;20285;-72
2022/10/10 04:51:08;;;;;;;9.35;4.38;;;;;;;8.31;77.56;101750.75;2057526;28;20277;-74
2022/10/10 04:52:12;;;;;;;15.90;4.50;;;;;;;8.31;77.28;101745.38;2041664;29;20294;-74
2022/10/10 04:53:20;;;;;;;13.43;4.88;;;;;;;8.31;77.21;101745.38;2037315;28;20524;-74
2022/10/10 04:54:26;;;;;;;12.82;4.13;;;;;;;8.29;78.32;101734.09;2054391;28;20370;-73
2022/10/10 04:55:29;;;;;;;9.25;4.32;;;;;;;8.34;78.25;101743.06;2046375;29;20715;-72
2022/10/10 04:56:31;;;;;;;8.18;4.00;;;;;;;8.36;78.11;101738.28;2038986;28;20712;-72
2022/10/10 04:57:35;;;;;;;8.68;3.67;;;;;;;8.39;77.97;101737.03;2047303;28;20396;-72
2022/10/10 04:58:42;;;;;;;8.00;4.22;;;;;;;8.42;78.13;101733.88;2055303;28;20682;-73
2022/10/10 04:59:46;;;;;;;14.52;4.57;;;;;;;8.41;78.12;101740.28;2054678;28;20287;-66
2022/10/10 05:00:52;;;;;;;12.20;5.25;;;;;;;8.36;78.68;101737.47;2048816;28;20306;-77
2022/10/10 05:01:57;;;;;;;12.02;4.60;;;;;;;8.33;77.87;101735.25;2055082;28;20328;-69
2022/10/10 05:03:04;;;;;;;14.93;6.05;;;;;;;8.29;77.98;101742.13;2061968;28;20622;-71
2022/10/10 05:04:09;;;;;;;;;;;;;;;8.23;78.08;101741.22;2062562;28;20289;-72
2022/10/10 05:05:17;;;;;;;13.98;4.25;;;;;;;8.19;78.12;101740.03;2063501;28;19917;-72
2022/10/10 05:06:20;;;;;;;10.23;4.53;;;;;;;8.16;78.22;101737.81;2063016;28;20645;-71
2022/10/10 05:07:32;;;;;;;13.10;4.28;;;;;;;8.12;78.46;101734.78;2059555;28;20281;-72
2022/10/10 05:08:38;;;;;;;15.52;4.32;;;;;;;8.09;78.77;101731.78;2069594;28;20284;-72
2022/10/10 05:09:42;;;;;;;11.77;4.63;;;;;;;8.03;79.04;101727.34;2060821;28;20281;-72
2022/10/10 05:10:46;;;;;;;14.10;4.38;;;;;;;7.99;78.82;101724.31;2061540;28;20284;-72
2022/10/10 05:11:49;;;;;;;10.95;4.05;;;;;;;7.95;79.12;101730.38;2061093;28;20993;-71
2022/10/10 05:12:52;;;;;;;18.80;4.53;;;;;;;7.89;79.17;101727.56;2053476;28;20321;-72
2022/10/10 05:13:55;;;;;;;13.07;4.68;;;;;;;7.85;79.29;101730.97;2053621;28;20309;-72
2022/10/10 05:15:00;;;;;;;13.80;3.97;;;;;;;7.84;79.67;101729.31;2061494;28;20289;-72
2022/10/10 05:16:05;;;;;;;9.50;4.05;;;;;;;7.83;79.83;101728.50;2061148;28;20285;-72
2022/10/10 05:17:14;;;;;;;8.77;3.78;;;;;;;7.80;80.32;101728.16;2065930;28;20297;-71
2022/10/10 05:18:22;;;;;;;8.80;4.03;;;;;;;7.80;80.18;101723.59;2058680;28;20290;-72